sensor_id;sensor_type;location;lat;lon;timestamp;P1;durP1;ratioP1;P2;durP2;ratioP2
71187;SDS011;58893;53.130;8.158;2023-01-10T00:01:24;6.33;;;2.43;;
71187;SDS011;58893;53.130;8.158;2023-01-10T00:03:50;4.40;;;2.10;;
71187;SDS011;58893;53.130;8.158;2023-01-10T00:06:15;7.23;;;2.63;;
71187;SDS011;58893;53.130;8.158;2023-01-10T00:08:41;4.50;;;2.00;;
71187;SDS011;58893;53.130;8.158;2023-01-10T00:11:07;3.67;;;1.90;;
71187;SDS011;58893;53.130;8.158;2023-01-10T00:13:54;11.97;;;2.90;;
71187;SDS011;58893;53.130;8.158;2023-01-10T00:16:20;8.23;;;2.70;;
71187;SDS011;58893;53.130;8.158;2023-01-10T00:18:46;3.73;;;1.90;;
71187;SDS011;58893;53.130;8.158;2023-01-10T00:21:12;4.50;;;2.03;;
71187;SDS011;58893;53.130;8.158;2023-01-10T00:23:38;6.40;;;2.40;;
71187;SDS011;58893;53.130;8.158;2023-01-10T00:26:04;6.77;;;2.40;;
71187;SDS011;58893;53.130;8.158;2023-01-10T00:28:30;10.13;;;2.17;;
71187;SDS011;58893;53.130;8.158;2023-01-10T00:30:58;7.13;;;2.30;;
71187;SDS011;58893;53.130;8.158;2023-01-10T00:33:26;3.87;;;1.63;;
71187;SDS011;58893;53.130;8.158;2023-01-10T00:35:52;8.20;;;1.73;;
71187;SDS011;58893;53.130;8.158;2023-01-10T00:38:18;7.17;;;2.13;;
71187;SDS011;58893;53.130;8.158;2023-01-10T00:40:44;4.27;;;2.20;;
71187;SDS011;58893;53.130;8.158;2023-01-10T00:43:10;7.20;;;2.47;;
71187;SDS011;58893;53.130;8.158;2023-01-10T00:45:55;9.97;;;2.30;;
71187;SDS011;58893;53.130;8.158;2023-01-10T00:48:22;5.70;;;1.87;;
71187;SDS011;58893;53.130;8.158;2023-01-10T00:50:48;3.70;;;2.10;;
71187;SDS011;58893;53.130;8.158;2023-01-10T00:53:14;7.27;;;2.37;;
71187;SDS011;58893;53.130;8.158;2023-01-10T00:55:40;9.30;;;2.63;;
71187;SDS011;58893;53.130;8.158;2023-01-10T00:58:06;5.60;;;2.40;;
71187;SDS011;58893;53.130;8.158;2023-01-10T01:00:35;4.80;;;2.33;;
71187;SDS011;58893;53.130;8.158;2023-01-10T01:03:02;3.60;;;1.90;;
71187;SDS011;58893;53.130;8.158;2023-01-10T01:05:27;10.23;;;2.93;;
71187;SDS011;58893;53.130;8.158;2023-01-10T01:07:53;13.27;;;2.10;;
71187;SDS011;58893;53.130;8.158;2023-01-10T01:10:19;8.80;;;2.27;;
71187;SDS011;58893;53.130;8.158;2023-01-10T01:12:50;2.77;;;1.90;;
71187;SDS011;58893;53.130;8.158;2023-01-10T01:15:17;4.27;;;1.90;;
71187;SDS011;58893;53.130;8.158;2023-01-10T01:17:42;6.07;;;1.80;;
71187;SDS011;58893;53.130;8.158;2023-01-10T01:20:08;3.40;;;1.80;;
71187;SDS011;58893;53.130;8.158;2023-01-10T01:22:34;11.90;;;2.30;;
71187;SDS011;58893;53.130;8.158;2023-01-10T01:25:00;4.07;;;1.87;;
71187;SDS011;58893;53.130;8.158;2023-01-10T01:27:26;10.07;;;1.60;;
71187;SDS011;58893;53.130;8.158;2023-01-10T01:29:51;4.57;;;1.40;;
71187;SDS011;58893;53.130;8.158;2023-01-10T01:32:18;2.03;;;1.30;;
71187;SDS011;58893;53.130;8.158;2023-01-10T01:34:45;4.77;;;1.50;;
71187;SDS011;58893;53.130;8.158;2023-01-10T01:37:11;4.93;;;1.53;;
71187;SDS011;58893;53.130;8.158;2023-01-10T01:39:36;6.30;;;1.67;;
71187;SDS011;58893;53.130;8.158;2023-01-10T01:42:03;2.70;;;1.30;;
71187;SDS011;58893;53.130;8.158;2023-01-10T01:44:30;6.93;;;1.60;;
71187;SDS011;58893;53.130;8.158;2023-01-10T01:47:05;8.50;;;2.20;;
71187;SDS011;58893;53.130;8.158;2023-01-10T01:49:33;2.80;;;1.53;;
71187;SDS011;58893;53.130;8.158;2023-01-10T01:52:06;8.10;;;1.77;;
71187;SDS011;58893;53.130;8.158;2023-01-10T01:54:36;2.10;;;1.53;;
71187;SDS011;58893;53.130;8.158;2023-01-10T01:57:04;5.70;;;1.10;;
71187;SDS011;58893;53.130;8.158;2023-01-10T01:59:39;5.20;;;1.50;;
71187;SDS011;58893;53.130;8.158;2023-01-10T02:02:18;6.40;;;1.40;;
71187;SDS011;58893;53.130;8.158;2023-01-10T02:07:14;3.07;;;1.77;;
71187;SDS011;58893;53.130;8.158;2023-01-10T02:09:45;8.90;;;1.30;;
71187;SDS011;58893;53.130;8.158;2023-01-10T02:12:21;6.60;;;1.47;;
71187;SDS011;58893;53.130;8.158;2023-01-10T02:14:47;13.43;;;1.60;;
71187;SDS011;58893;53.130;8.158;2023-01-10T02:17:15;7.53;;;1.40;;
71187;SDS011;58893;53.130;8.158;2023-01-10T02:19:50;7.67;;;2.03;;
71187;SDS011;58893;53.130;8.158;2023-01-10T02:22:52;5.40;;;1.80;;
71187;SDS011;58893;53.130;8.158;2023-01-10T02:34:12;9.80;;;1.70;;
71187;SDS011;58893;53.130;8.158;2023-01-10T02:45:03;15.07;;;1.13;;
71187;SDS011;58893;53.130;8.158;2023-01-10T02:47:41;11.37;;;1.97;;
71187;SDS011;58893;53.130;8.158;2023-01-10T02:50:25;6.13;;;1.47;;
71187;SDS011;58893;53.130;8.158;2023-01-10T02:53:51;7.17;;;1.37;;
71187;SDS011;58893;53.130;8.158;2023-01-10T02:59:01;7.77;;;1.33;;
71187;SDS011;58893;53.130;8.158;2023-01-10T03:01:58;10.27;;;1.90;;
71187;SDS011;58893;53.130;8.158;2023-01-10T03:07:07;9.73;;;2.17;;
71187;SDS011;58893;53.130;8.158;2023-01-10T03:12:30;8.20;;;1.60;;
71187;SDS011;58893;53.130;8.158;2023-01-10T03:15:06;16.43;;;1.97;;
71187;SDS011;58893;53.130;8.158;2023-01-10T03:17:35;4.20;;;1.60;;
71187;SDS011;58893;53.130;8.158;2023-01-10T03:20:03;6.37;;;1.83;;
71187;SDS011;58893;53.130;8.158;2023-01-10T03:22:32;3.40;;;1.70;;
71187;SDS011;58893;53.130;8.158;2023-01-10T03:25:02;8.83;;;2.07;;
71187;SDS011;58893;53.130;8.158;2023-01-10T03:32:54;7.20;;;2.30;;
71187;SDS011;58893;53.130;8.158;2023-01-10T03:35:26;6.80;;;2.23;;
71187;SDS011;58893;53.130;8.158;2023-01-10T03:38:08;5.90;;;2.87;;
71187;SDS011;58893;53.130;8.158;2023-01-10T03:41:03;17.67;;;1.83;;
71187;SDS011;58893;53.130;8.158;2023-01-10T03:43:42;13.67;;;1.77;;
71187;SDS011;58893;53.130;8.158;2023-01-10T03:46:46;6.90;;;1.40;;
71187;SDS011;58893;53.130;8.158;2023-01-10T03:49:16;12.27;;;1.77;;
71187;SDS011;58893;53.130;8.158;2023-01-10T03:51:44;10.50;;;1.50;;
71187;SDS011;58893;53.130;8.158;2023-01-10T03:54:11;5.87;;;1.67;;
71187;SDS011;58893;53.130;8.158;2023-01-10T03:56:44;10.93;;;1.90;;
71187;SDS011;58893;53.130;8.158;2023-01-10T03:59:14;6.13;;;1.73;;
71187;SDS011;58893;53.130;8.158;2023-01-10T04:01:41;6.10;;;1.80;;
71187;SDS011;58893;53.130;8.158;2023-01-10T04:04:07;15.07;;;2.40;;
71187;SDS011;58893;53.130;8.158;2023-01-10T04:06:33;6.57;;;1.90;;
71187;SDS011;58893;53.130;8.158;2023-01-10T04:08:58;5.30;;;3.20;;
71187;SDS011;58893;53.130;8.158;2023-01-10T04:11:24;11.80;;;2.13;;
71187;SDS011;58893;53.130;8.158;2023-01-10T04:13:52;3.67;;;1.90;;
71187;SDS011;58893;53.130;8.158;2023-01-10T04:16:17;8.43;;;1.60;;
71187;SDS011;58893;53.130;8.158;2023-01-10T04:18:44;17.90;;;1.90;;
71187;SDS011;58893;53.130;8.158;2023-01-10T04:21:10;8.00;;;1.40;;
71187;SDS011;58893;53.130;8.158;2023-01-10T04:23:35;13.03;;;2.07;;
71187;SDS011;58893;53.130;8.158;2023-01-10T04:26:01;10.37;;;2.60;;
71187;SDS011;58893;53.130;8.158;2023-01-10T04:28:27;9.60;;;1.77;;
71187;SDS011;58893;53.130;8.158;2023-01-10T04:30:52;7.80;;;1.63;;
71187;SDS011;58893;53.130;8.158;2023-01-10T04:33:18;8.50;;;2.30;;
71187;SDS011;58893;53.130;8.158;2023-01-10T04:35:47;11.83;;;1.67;;
71187;SDS011;58893;53.130;8.158;2023-01-10T04:38:14;24.07;;;3.20;;
71187;SDS011;58893;53.130;8.158;2023-01-10T04:40:40;12.67;;;2.10;;
71187;SDS011;58893;53.130;8.158;2023-01-10T04:43:06;9.17;;;1.80;;
71187;SDS011;58893;53.130;8.158;2023-01-10T04:45:32;4.37;;;1.70;;
71187;SDS011;58893;53.130;8.158;2023-01-10T04:47:58;14.00;;;1.43;;
71187;SDS011;58893;53.130;8.158;2023-01-10T04:50:24;4.93;;;2.03;;
71187;SDS011;58893;53.130;8.158;2023-01-10T04:52:51;7.67;;;1.93;;
71187;SDS011;58893;53.130;8.158;2023-01-10T04:55:18;10.43;;;2.27;;
71187;SDS011;58893;53.130;8.158;2023-01-10T04:57:43;14.30;;;3.00;;
71187;SDS011;58893;53.130;8.158;2023-01-10T05:00:09;14.03;;;2.80;;
71187;SDS011;58893;53.130;8.158;2023-01-10T05:02:36;10.23;;;2.60;;
71187;SDS011;58893;53.130;8.158;2023-01-10T05:05:07;9.20;;;2.27;;
71187;SDS011;58893;53.130;8.158;2023-01-10T05:07:37;9.07;;;2.20;;
71187;SDS011;58893;53.130;8.158;2023-01-10T05:10:04;7.63;;;2.07;;
71187;SDS011;58893;53.130;8.158;2023-01-10T05:12:32;21.17;;;3.30;;
71187;SDS011;58893;53.130;8.158;2023-01-10T05:14:58;21.13;;;2.40;;
71187;SDS011;58893;53.130;8.158;2023-01-10T05:17:23;4.80;;;2.30;;
71187;SDS011;58893;53.130;8.158;2023-01-10T05:19:49;6.50;;;1.50;;
71187;SDS011;58893;53.130;8.158;2023-01-10T05:22:15;22.23;;;2.37;;
71187;SDS011;58893;53.130;8.158;2023-01-10T05:24:40;9.63;;;2.00;;
71187;SDS011;58893;53.130;8.158;2023-01-10T05:27:06;15.10;;;2.00;;
71187;SDS011;58893;53.130;8.158;2023-01-10T05:29:32;9.17;;;2.20;;
71187;SDS011;58893;53.130;8.158;2023-01-10T05:31:58;11.63;;;2.20;;
71187;SDS011;58893;53.130;8.158;2023-01-10T05:34:23;7.77;;;2.30;;
71187;SDS011;58893;53.130;8.158;2023-01-10T05:36:49;6.50;;;2.37;;
71187;SDS011;58893;53.130;8.158;2023-01-10T05:39:15;6.13;;;1.60;;
71187;SDS011;58893;53.130;8.158;2023-01-10T05:41:40;18.13;;;2.73;;
71187;SDS011;58893;53.130;8.158;2023-01-10T05:44:06;23.80;;;2.40;;
71187;SDS011;58893;53.130;8.158;2023-01-10T05:46:32;6.30;;;2.33;;
71187;SDS011;58893;53.130;8.158;2023-01-10T05:48:58;14.70;;;3.07;;
71187;SDS011;58893;53.130;8.158;2023-01-10T05:51:23;13.13;;;1.70;;
71187;SDS011;58893;53.130;8.158;2023-01-10T05:53:49;7.50;;;2.40;;
71187;SDS011;58893;53.130;8.158;2023-01-10T05:56:15;17.70;;;2.30;;
71187;SDS011;58893;53.130;8.158;2023-01-10T05:58:40;12.03;;;2.27;;
71187;SDS011;58893;53.130;8.158;2023-01-10T06:01:06;12.47;;;2.93;;
71187;SDS011;58893;53.130;8.158;2023-01-10T06:03:32;12.73;;;2.00;;
71187;SDS011;58893;53.130;8.158;2023-01-10T06:05:57;7.20;;;2.60;;
71187;SDS011;58893;53.130;8.158;2023-01-10T06:08:24;8.67;;;2.63;;
71187;SDS011;58893;53.130;8.158;2023-01-10T06:10:50;13.20;;;2.83;;
71187;SDS011;58893;53.130;8.158;2023-01-10T06:13:16;12.80;;;2.57;;
71187;SDS011;58893;53.130;8.158;2023-01-10T06:15:42;4.03;;;1.73;;
71187;SDS011;58893;53.130;8.158;2023-01-10T06:18:08;9.20;;;2.80;;
71187;SDS011;58893;53.130;8.158;2023-01-10T06:20:33;4.13;;;2.00;;
71187;SDS011;58893;53.130;8.158;2023-01-10T06:22:59;14.80;;;2.67;;
71187;SDS011;58893;53.130;8.158;2023-01-10T06:25:28;16.20;;;2.17;;
71187;SDS011;58893;53.130;8.158;2023-01-10T06:27:55;13.40;;;2.40;;
71187;SDS011;58893;53.130;8.158;2023-01-10T06:30:20;14.67;;;2.40;;
71187;SDS011;58893;53.130;8.158;2023-01-10T06:32:46;12.37;;;2.67;;
71187;SDS011;58893;53.130;8.158;2023-01-10T06:35:12;6.17;;;1.87;;
71187;SDS011;58893;53.130;8.158;2023-01-10T06:37:37;7.20;;;2.00;;
71187;SDS011;58893;53.130;8.158;2023-01-10T06:40:03;12.13;;;2.10;;
71187;SDS011;58893;53.130;8.158;2023-01-10T06:42:29;17.83;;;2.20;;
71187;SDS011;58893;53.130;8.158;2023-01-10T06:44:55;5.93;;;2.10;;
71187;SDS011;58893;53.130;8.158;2023-01-10T06:47:21;13.50;;;2.80;;
71187;SDS011;58893;53.130;8.158;2023-01-10T06:49:46;14.27;;;2.93;;
71187;SDS011;58893;53.130;8.158;2023-01-10T06:52:12;15.50;;;3.00;;
71187;SDS011;58893;53.130;8.158;2023-01-10T06:54:37;14.60;;;3.23;;
71187;SDS011;58893;53.130;8.158;2023-01-10T06:57:05;10.10;;;2.10;;
71187;SDS011;58893;53.130;8.158;2023-01-10T06:59:32;5.47;;;2.00;;
71187;SDS011;58893;53.130;8.158;2023-01-10T07:01:57;8.40;;;2.73;;
71187;SDS011;58893;53.130;8.158;2023-01-10T07:04:23;7.73;;;1.80;;
71187;SDS011;58893;53.130;8.158;2023-01-10T07:06:50;8.70;;;2.10;;
71187;SDS011;58893;53.130;8.158;2023-01-10T07:09:17;15.83;;;2.57;;
71187;SDS011;58893;53.130;8.158;2023-01-10T07:11:42;9.77;;;1.97;;
71187;SDS011;58893;53.130;8.158;2023-01-10T07:14:09;14.83;;;2.60;;
71187;SDS011;58893;53.130;8.158;2023-01-10T07:16:34;10.90;;;2.30;;
71187;SDS011;58893;53.130;8.158;2023-01-10T07:19:00;10.60;;;2.90;;
71187;SDS011;58893;53.130;8.158;2023-01-10T07:21:26;16.50;;;3.20;;
71187;SDS011;58893;53.130;8.158;2023-01-10T07:23:52;11.80;;;2.40;;
71187;SDS011;58893;53.130;8.158;2023-01-10T07:26:18;8.13;;;3.03;;
71187;SDS011;58893;53.130;8.158;2023-01-10T07:28:46;5.73;;;2.57;;
71187;SDS011;58893;53.130;8.158;2023-01-10T07:31:15;20.33;;;2.17;;
71187;SDS011;58893;53.130;8.158;2023-01-10T07:33:41;3.70;;;2.10;;
71187;SDS011;58893;53.130;8.158;2023-01-10T07:36:07;8.53;;;2.20;;
71187;SDS011;58893;53.130;8.158;2023-01-10T07:38:33;13.40;;;2.50;;
71187;SDS011;58893;53.130;8.158;2023-01-10T07:41:01;8.73;;;3.00;;
71187;SDS011;58893;53.130;8.158;2023-01-10T07:43:27;16.87;;;3.60;;
71187;SDS011;58893;53.130;8.158;2023-01-10T07:45:53;12.50;;;3.33;;
71187;SDS011;58893;53.130;8.158;2023-01-10T07:48:22;14.37;;;2.83;;
71187;SDS011;58893;53.130;8.158;2023-01-10T07:50:48;9.83;;;3.00;;
71187;SDS011;58893;53.130;8.158;2023-01-10T07:53:14;10.83;;;2.83;;
71187;SDS011;58893;53.130;8.158;2023-01-10T07:55:39;12.13;;;4.60;;
71187;SDS011;58893;53.130;8.158;2023-01-10T07:58:06;5.40;;;1.97;;
71187;SDS011;58893;53.130;8.158;2023-01-10T08:00:32;19.30;;;2.95;;
71187;SDS011;58893;53.130;8.158;2023-01-10T08:02:58;12.83;;;2.70;;
71187;SDS011;58893;53.130;8.158;2023-01-10T08:05:24;8.70;;;2.93;;
71187;SDS011;58893;53.130;8.158;2023-01-10T08:07:49;14.97;;;3.60;;
71187;SDS011;58893;53.130;8.158;2023-01-10T08:10:16;10.20;;;2.47;;
71187;SDS011;58893;53.130;8.158;2023-01-10T08:12:42;12.47;;;2.77;;
71187;SDS011;58893;53.130;8.158;2023-01-10T08:15:08;12.30;;;3.00;;
71187;SDS011;58893;53.130;8.158;2023-01-10T08:17:34;13.30;;;3.77;;
71187;SDS011;58893;53.130;8.158;2023-01-10T08:20:00;15.07;;;3.20;;
71187;SDS011;58893;53.130;8.158;2023-01-10T08:22:26;7.53;;;2.53;;
71187;SDS011;58893;53.130;8.158;2023-01-10T08:24:52;6.60;;;2.40;;
71187;SDS011;58893;53.130;8.158;2023-01-10T08:27:18;7.47;;;2.83;;
71187;SDS011;58893;53.130;8.158;2023-01-10T08:29:43;4.30;;;2.50;;
71187;SDS011;58893;53.130;8.158;2023-01-10T08:32:09;12.30;;;2.90;;
71187;SDS011;58893;53.130;8.158;2023-01-10T08:34:35;12.70;;;3.30;;
71187;SDS011;58893;53.130;8.158;2023-01-10T08:37:01;17.20;;;3.20;;
71187;SDS011;58893;53.130;8.158;2023-01-10T08:39:27;8.23;;;2.80;;
71187;SDS011;58893;53.130;8.158;2023-01-10T08:41:54;16.70;;;3.57;;
71187;SDS011;58893;53.130;8.158;2023-01-10T08:44:20;12.03;;;2.90;;
71187;SDS011;58893;53.130;8.158;2023-01-10T08:46:46;13.20;;;3.57;;
71187;SDS011;58893;53.130;8.158;2023-01-10T08:49:12;9.63;;;3.87;;
71187;SDS011;58893;53.130;8.158;2023-01-10T08:51:38;20.53;;;3.77;;
71187;SDS011;58893;53.130;8.158;2023-01-10T08:54:04;13.93;;;3.90;;
71187;SDS011;58893;53.130;8.158;2023-01-10T08:56:29;14.13;;;3.87;;
71187;SDS011;58893;53.130;8.158;2023-01-10T08:58:55;12.23;;;3.20;;
71187;SDS011;58893;53.130;8.158;2023-01-10T09:01:21;15.83;;;2.90;;
71187;SDS011;58893;53.130;8.158;2023-01-10T09:03:47;4.03;;;2.47;;
71187;SDS011;58893;53.130;8.158;2023-01-10T09:06:13;18.50;;;3.80;;
71187;SDS011;58893;53.130;8.158;2023-01-10T09:08:39;12.07;;;3.00;;
71187;SDS011;58893;53.130;8.158;2023-01-10T09:11:05;14.83;;;3.00;;
71187;SDS011;58893;53.130;8.158;2023-01-10T09:13:31;8.83;;;2.57;;
71187;SDS011;58893;53.130;8.158;2023-01-10T09:15:57;13.77;;;3.17;;
71187;SDS011;58893;53.130;8.158;2023-01-10T09:18:23;13.50;;;3.30;;
71187;SDS011;58893;53.130;8.158;2023-01-10T09:20:50;6.13;;;2.63;;
71187;SDS011;58893;53.130;8.158;2023-01-10T09:23:17;19.77;;;3.23;;
71187;SDS011;58893;53.130;8.158;2023-01-10T09:25:45;10.53;;;2.70;;
71187;SDS011;58893;53.130;8.158;2023-01-10T09:28:11;8.50;;;3.27;;
71187;SDS011;58893;53.130;8.158;2023-01-10T09:30:37;7.77;;;2.80;;
71187;SDS011;58893;53.130;8.158;2023-01-10T09:33:03;10.87;;;3.60;;
71187;SDS011;58893;53.130;8.158;2023-01-10T09:35:30;12.67;;;3.00;;
71187;SDS011;58893;53.130;8.158;2023-01-10T09:37:57;8.40;;;3.00;;
71187;SDS011;58893;53.130;8.158;2023-01-10T09:46:46;13.13;;;2.80;;
71187;SDS011;58893;53.130;8.158;2023-01-10T09:49:38;12.17;;;2.90;;
71187;SDS011;58893;53.130;8.158;2023-01-10T09:52:22;7.13;;;2.50;;
71187;SDS011;58893;53.130;8.158;2023-01-10T09:54:53;13.30;;;2.90;;
71187;SDS011;58893;53.130;8.158;2023-01-10T09:57:21;11.57;;;3.17;;
71187;SDS011;58893;53.130;8.158;2023-01-10T09:59:48;6.90;;;2.97;;
71187;SDS011;58893;53.130;8.158;2023-01-10T10:07:50;24.43;;;3.70;;
71187;SDS011;58893;53.130;8.158;2023-01-10T10:10:43;13.83;;;3.77;;
71187;SDS011;58893;53.130;8.158;2023-01-10T10:38:07;18.27;;;4.83;;
71187;SDS011;58893;53.130;8.158;2023-01-10T10:40:39;18.13;;;4.90;;
71187;SDS011;58893;53.130;8.158;2023-01-10T10:46:07;12.97;;;3.90;;
71187;SDS011;58893;53.130;8.158;2023-01-10T10:48:40;13.77;;;3.77;;
71187;SDS011;58893;53.130;8.158;2023-01-10T10:51:11;31.80;;;4.20;;
71187;SDS011;58893;53.130;8.158;2023-01-10T10:53:53;15.53;;;3.83;;
71187;SDS011;58893;53.130;8.158;2023-01-10T10:56:21;15.80;;;5.00;;
71187;SDS011;58893;53.130;8.158;2023-01-10T10:58:49;21.40;;;4.50;;
71187;SDS011;58893;53.130;8.158;2023-01-10T11:01:19;17.03;;;4.00;;
71187;SDS011;58893;53.130;8.158;2023-01-10T11:03:47;15.53;;;4.60;;
71187;SDS011;58893;53.130;8.158;2023-01-10T11:06:32;27.67;;;4.70;;
71187;SDS011;58893;53.130;8.158;2023-01-10T11:09:03;15.53;;;4.10;;
71187;SDS011;58893;53.130;8.158;2023-01-10T11:11:31;18.73;;;6.07;;
71187;SDS011;58893;53.130;8.158;2023-01-10T11:14:04;10.17;;;4.30;;
71187;SDS011;58893;53.130;8.158;2023-01-10T11:16:41;13.40;;;4.30;;
71187;SDS011;58893;53.130;8.158;2023-01-10T11:19:14;8.60;;;3.80;;
71187;SDS011;58893;53.130;8.158;2023-01-10T11:24:19;20.90;;;3.57;;
71187;SDS011;58893;53.130;8.158;2023-01-10T11:26:51;11.67;;;3.40;;
71187;SDS011;58893;53.130;8.158;2023-01-10T11:29:18;12.30;;;3.83;;
71187;SDS011;58893;53.130;8.158;2023-01-10T11:31:49;19.20;;;4.00;;
71187;SDS011;58893;53.130;8.158;2023-01-10T11:34:22;14.63;;;3.27;;
71187;SDS011;58893;53.130;8.158;2023-01-10T11:37:00;11.70;;;3.80;;
71187;SDS011;58893;53.130;8.158;2023-01-10T11:39:26;30.63;;;4.03;;
71187;SDS011;58893;53.130;8.158;2023-01-10T11:41:53;17.50;;;4.77;;
71187;SDS011;58893;53.130;8.158;2023-01-10T11:44:25;24.50;;;5.07;;
71187;SDS011;58893;53.130;8.158;2023-01-10T11:46:55;14.40;;;4.33;;
71187;SDS011;58893;53.130;8.158;2023-01-10T11:49:27;11.90;;;3.80;;
71187;SDS011;58893;53.130;8.158;2023-01-10T11:52:03;19.63;;;4.10;;
71187;SDS011;58893;53.130;8.158;2023-01-10T11:54:37;15.80;;;4.13;;
71187;SDS011;58893;53.130;8.158;2023-01-10T11:57:15;14.40;;;3.77;;
71187;SDS011;58893;53.130;8.158;2023-01-10T12:02:21;14.40;;;3.90;;
71187;SDS011;58893;53.130;8.158;2023-01-10T12:04:49;13.97;;;4.30;;
71187;SDS011;58893;53.130;8.158;2023-01-10T12:07:16;12.70;;;3.77;;
71187;SDS011;58893;53.130;8.158;2023-01-10T12:09:55;15.80;;;4.23;;
71187;SDS011;58893;53.130;8.158;2023-01-10T12:14:50;12.10;;;4.00;;
71187;SDS011;58893;53.130;8.158;2023-01-10T12:20:01;16.93;;;3.83;;
71187;SDS011;58893;53.130;8.158;2023-01-10T12:22:33;23.37;;;5.27;;
71187;SDS011;58893;53.130;8.158;2023-01-10T12:25:21;16.50;;;4.73;;
71187;SDS011;58893;53.130;8.158;2023-01-10T12:28:05;20.90;;;4.30;;
71187;SDS011;58893;53.130;8.158;2023-01-10T12:30:49;14.70;;;4.00;;
71187;SDS011;58893;53.130;8.158;2023-01-10T12:33:39;16.63;;;4.17;;
71187;SDS011;58893;53.130;8.158;2023-01-10T12:36:11;28.13;;;5.70;;
71187;SDS011;58893;53.130;8.158;2023-01-10T12:44:38;16.43;;;4.13;;
71187;SDS011;58893;53.130;8.158;2023-01-10T12:55:19;26.57;;;4.60;;
71187;SDS011;58893;53.130;8.158;2023-01-10T12:57:47;15.40;;;3.57;;
71187;SDS011;58893;53.130;8.158;2023-01-10T13:02:54;22.43;;;4.47;;
71187;SDS011;58893;53.130;8.158;2023-01-10T13:05:24;8.83;;;3.73;;
71187;SDS011;58893;53.130;8.158;2023-01-10T13:07:58;28.67;;;4.97;;
71187;SDS011;58893;53.130;8.158;2023-01-10T13:10:28;16.10;;;4.60;;
71187;SDS011;58893;53.130;8.158;2023-01-10T13:21:27;16.80;;;4.33;;
71187;SDS011;58893;53.130;8.158;2023-01-10T13:26:57;19.67;;;4.50;;
71187;SDS011;58893;53.130;8.158;2023-01-10T13:29:29;12.60;;;3.80;;
71187;SDS011;58893;53.130;8.158;2023-01-10T13:31:57;34.53;;;4.70;;
71187;SDS011;58893;53.130;8.158;2023-01-10T13:34:26;12.07;;;3.90;;
71187;SDS011;58893;53.130;8.158;2023-01-10T13:36:59;17.80;;;4.10;;
71187;SDS011;58893;53.130;8.158;2023-01-10T13:39:42;18.37;;;3.50;;
71187;SDS011;58893;53.130;8.158;2023-01-10T13:42:26;14.80;;;4.20;;
71187;SDS011;58893;53.130;8.158;2023-01-10T13:45:19;12.20;;;4.50;;
71187;SDS011;58893;53.130;8.158;2023-01-10T13:52:50;12.70;;;3.60;;
71187;SDS011;58893;53.130;8.158;2023-01-10T14:16:56;15.80;;;3.50;;
71187;SDS011;58893;53.130;8.158;2023-01-10T14:19:34;18.13;;;3.17;;
71187;SDS011;58893;53.130;8.158;2023-01-10T14:22:01;13.33;;;4.67;;
71187;SDS011;58893;53.130;8.158;2023-01-10T14:24:29;21.77;;;4.60;;
71187;SDS011;58893;53.130;8.158;2023-01-10T14:27:05;18.13;;;4.27;;
71187;SDS011;58893;53.130;8.158;2023-01-10T14:29:37;21.70;;;3.83;;
71187;SDS011;58893;53.130;8.158;2023-01-10T14:32:17;25.07;;;4.20;;
71187;SDS011;58893;53.130;8.158;2023-01-10T14:34:56;10.43;;;3.87;;
71187;SDS011;58893;53.130;8.158;2023-01-10T14:37:29;19.70;;;4.13;;
71187;SDS011;58893;53.130;8.158;2023-01-10T14:40:03;9.87;;;3.53;;
71187;SDS011;58893;53.130;8.158;2023-01-10T14:42:31;9.07;;;3.07;;
71187;SDS011;58893;53.130;8.158;2023-01-10T14:47:32;13.80;;;3.20;;
71187;SDS011;58893;53.130;8.158;2023-01-10T14:49:59;9.50;;;3.00;;
71187;SDS011;58893;53.130;8.158;2023-01-10T14:52:26;17.37;;;3.40;;
71187;SDS011;58893;53.130;8.158;2023-01-10T14:57:38;26.43;;;3.63;;
71187;SDS011;58893;53.130;8.158;2023-01-10T15:00:05;25.53;;;4.30;;
71187;SDS011;58893;53.130;8.158;2023-01-10T15:02:43;11.60;;;5.23;;
71187;SDS011;58893;53.130;8.158;2023-01-10T15:05:23;19.73;;;4.17;;
71187;SDS011;58893;53.130;8.158;2023-01-10T15:07:53;14.90;;;4.30;;
71187;SDS011;58893;53.130;8.158;2023-01-10T15:10:23;18.90;;;3.47;;
71187;SDS011;58893;53.130;8.158;2023-01-10T15:12:56;14.23;;;3.43;;
71187;SDS011;58893;53.130;8.158;2023-01-10T15:15:32;13.13;;;3.10;;
71187;SDS011;58893;53.130;8.158;2023-01-10T15:17:59;21.13;;;4.97;;
71187;SDS011;58893;53.130;8.158;2023-01-10T15:20:30;19.67;;;4.40;;
71187;SDS011;58893;53.130;8.158;2023-01-10T15:22:57;18.80;;;3.70;;
71187;SDS011;58893;53.130;8.158;2023-01-10T15:25:26;12.47;;;3.20;;
71187;SDS011;58893;53.130;8.158;2023-01-10T15:27:54;15.87;;;2.80;;
71187;SDS011;58893;53.130;8.158;2023-01-10T15:30:22;18.60;;;4.30;;
71187;SDS011;58893;53.130;8.158;2023-01-10T15:32:55;20.07;;;3.30;;
71187;SDS011;58893;53.130;8.158;2023-01-10T15:35:29;20.80;;;3.20;;
71187;SDS011;58893;53.130;8.158;2023-01-10T15:38:06;23.87;;;4.23;;
71187;SDS011;58893;53.130;8.158;2023-01-10T15:40:36;30.07;;;4.93;;
71187;SDS011;58893;53.130;8.158;2023-01-10T15:45:34;18.67;;;4.10;;
71187;SDS011;58893;53.130;8.158;2023-01-10T15:48:03;18.43;;;4.67;;
71187;SDS011;58893;53.130;8.158;2023-01-10T15:50:36;16.07;;;3.80;;
71187;SDS011;58893;53.130;8.158;2023-01-10T15:53:04;16.87;;;4.00;;
71187;SDS011;58893;53.130;8.158;2023-01-10T15:58:18;21.73;;;4.10;;
71187;SDS011;58893;53.130;8.158;2023-01-10T16:00:45;23.60;;;5.37;;
71187;SDS011;58893;53.130;8.158;2023-01-10T16:03:16;13.13;;;4.00;;
71187;SDS011;58893;53.130;8.158;2023-01-10T16:05:57;19.87;;;4.30;;
71187;SDS011;58893;53.130;8.158;2023-01-10T16:08:25;17.63;;;3.87;;
71187;SDS011;58893;53.130;8.158;2023-01-10T16:10:53;17.07;;;4.40;;
71187;SDS011;58893;53.130;8.158;2023-01-10T16:13:22;30.03;;;4.10;;
71187;SDS011;58893;53.130;8.158;2023-01-10T16:15:56;18.17;;;4.47;;
71187;SDS011;58893;53.130;8.158;2023-01-10T16:18:22;18.00;;;4.00;;
71187;SDS011;58893;53.130;8.158;2023-01-10T16:20:49;12.47;;;4.13;;
71187;SDS011;58893;53.130;8.158;2023-01-10T16:23:18;17.23;;;4.47;;
71187;SDS011;58893;53.130;8.158;2023-01-10T16:25:51;11.03;;;3.67;;
71187;SDS011;58893;53.130;8.158;2023-01-10T16:28:19;12.67;;;3.77;;
71187;SDS011;58893;53.130;8.158;2023-01-10T16:30:45;27.63;;;3.50;;
71187;SDS011;58893;53.130;8.158;2023-01-10T16:33:13;16.23;;;3.50;;
71187;SDS011;58893;53.130;8.158;2023-01-10T16:35:56;17.17;;;3.90;;
71187;SDS011;58893;53.130;8.158;2023-01-10T16:38:24;16.50;;;3.40;;
71187;SDS011;58893;53.130;8.158;2023-01-10T16:40:52;13.27;;;3.97;;
71187;SDS011;58893;53.130;8.158;2023-01-10T16:43:23;8.93;;;3.43;;
71187;SDS011;58893;53.130;8.158;2023-01-10T16:48:28;7.80;;;3.23;;
71187;SDS011;58893;53.130;8.158;2023-01-10T16:51:11;27.70;;;3.50;;
71187;SDS011;58893;53.130;8.158;2023-01-10T16:53:40;13.73;;;3.60;;
71187;SDS011;58893;53.130;8.158;2023-01-10T16:56:07;21.30;;;3.63;;
71187;SDS011;58893;53.130;8.158;2023-01-10T16:58:39;29.23;;;4.00;;
71187;SDS011;58893;53.130;8.158;2023-01-10T17:01:04;15.90;;;3.37;;
71187;SDS011;58893;53.130;8.158;2023-01-10T17:03:31;13.37;;;3.53;;
71187;SDS011;58893;53.130;8.158;2023-01-10T17:06:02;15.90;;;2.90;;
71187;SDS011;58893;53.130;8.158;2023-01-10T17:08:28;15.37;;;4.53;;
71187;SDS011;58893;53.130;8.158;2023-01-10T17:10:55;11.47;;;2.60;;
71187;SDS011;58893;53.130;8.158;2023-01-10T17:13:26;16.27;;;2.90;;
71187;SDS011;58893;53.130;8.158;2023-01-10T17:16:00;14.23;;;3.27;;
71187;SDS011;58893;53.130;8.158;2023-01-10T17:18:26;11.23;;;3.33;;
71187;SDS011;58893;53.130;8.158;2023-01-10T17:20:52;16.23;;;3.30;;
71187;SDS011;58893;53.130;8.158;2023-01-10T17:23:19;19.53;;;3.70;;